Time;durP1;ratioP1;P1;durP2;ratioP2;P2;SDS_P1;SDS_P2;PMS_P1;PMS_P2;Temp;Humidity;BMP_temperature;BMP_pressure;BME280_temperature;BME280_humidity;BME280_pressure;Samples;Min_cycle;Max_cycle;Signal;HPM_P1;HPM_P2
2021/01/09 00:02:07;;;;;;;6.70;2.40;;;;;;;;;;4977823;28;20509;-96
2021/01/09 00:04:34;;;;;;;6.27;2.37;;;;;;;;;;4977632;28;20457;-96
2021/01/09 00:07:00;;;;;;;3.93;2.40;;;;;;;;;;4979542;28;20490;-94
2021/01/09 00:09:26;;;;;;;7.47;2.93;;;;;;;;;;4976278;28;20466;-95
2021/01/09 00:11:52;;;;;;;7.60;2.20;;;;;;;;;;4978536;28;20461;-93
2021/01/09 00:14:19;;;;;;;5.00;2.40;;;;;;;;;;4979564;28;20574;-95
2021/01/09 00:16:46;;;;;;;7.20;2.10;;;;;;;;;;5008710;28;20476;-95
2021/01/09 00:19:12;;;;;;;3.17;2.07;;;;;;;;;;5017782;28;20459;-94
2021/01/09 00:21:39;;;;;;;4.27;2.20;;;;;;;;;;4998385;28;20481;-94
2021/01/09 00:24:06;;;;;;;3.70;1.73;;;;;;;;;;4998297;28;20457;-95
2021/01/09 00:26:32;;;;;;;3.93;1.67;;;;;;;;;;5000578;28;20451;-94
2021/01/09 00:28:58;;;;;;;4.07;1.90;;;;;;;;;;5005418;28;20464;-94
2021/01/09 00:31:24;;;;;;;4.60;2.47;;;;;;;;;;5001862;28;20471;-95
2021/01/09 00:33:50;;;;;;;4.63;1.90;;;;;;;;;;5003405;28;20472;-94
2021/01/09 00:36:16;;;;;;;2.80;1.70;;;;;;;;;;5001613;28;20453;-95
2021/01/09 00:38:43;;;;;;;3.50;1.93;;;;;;;;;;5001842;28;20455;-94
2021/01/09 00:41:09;;;;;;;7.70;3.03;;;;;;;;;;5002192;28;20461;-94
2021/01/09 00:43:35;;;;;;;5.50;2.10;;;;;;;;;;5009516;28;20494;-94
2021/01/09 00:46:01;;;;;;;3.80;1.97;;;;;;;;;;5021906;28;20456;-94
2021/01/09 00:48:27;;;;;;;3.83;2.20;;;;;;;;;;5014338;28;20465;-95
2021/01/09 00:50:53;;;;;;;6.97;2.47;;;;;;;;;;5003272;28;20495;-93
2021/01/09 00:53:19;;;;;;;3.73;1.80;;;;;;;;;;5002831;28;20475;-95
2021/01/09 00:55:46;;;;;;;4.03;1.97;;;;;;;;;;5015811;28;20455;-94
2021/01/09 00:58:12;;;;;;;6.33;1.90;;;;;;;;;;5021149;28;20455;-95
2021/01/09 01:00:38;;;;;;;4.00;1.97;;;;;;;;;;5001818;28;21114;-94
2021/01/09 01:03:05;;;;;;;6.27;2.00;;;;;;;;;;5003581;28;20496;-93
2021/01/09 01:05:31;;;;;;;9.00;2.33;;;;;;;;;;5000790;28;20463;-96
2021/01/09 01:07:57;;;;;;;2.67;1.87;;;;;;;;;;5003704;28;20452;-93
2021/01/09 01:10:23;;;;;;;7.17;1.67;;;;;;;;;;4999942;28;20976;-94
2021/01/09 01:12:52;;;;;;;3.37;1.90;;;;;;;;;;5002711;28;20528;-93
2021/01/09 01:15:18;;;;;;;3.30;1.50;;;;;;;;;;5001241;28;20488;-93
2021/01/09 01:17:47;;;;;;;3.23;1.80;;;;;;;;;;4978746;28;20541;-94
2021/01/09 01:20:13;;;;;;;2.93;2.10;;;;;;;;;;4981026;28;20477;-92
2021/01/09 01:22:39;;;;;;;1.83;1.60;;;;;;;;;;4979399;28;20869;-94
2021/01/09 01:25:06;;;;;;;2.43;1.53;;;;;;;;;;4984450;28;20457;-92
2021/01/09 01:27:32;;;;;;;2.17;1.40;;;;;;;;;;4979233;28;20457;-93
2021/01/09 01:29:59;;;;;;;2.90;1.27;;;;;;;;;;4983491;28;20473;-96
2021/01/09 01:32:25;;;;;;;2.23;1.37;;;;;;;;;;4984119;28;20458;-92
2021/01/09 01:34:51;;;;;;;1.40;1.30;;;;;;;;;;4981497;28;20468;-95
2021/01/09 01:37:17;;;;;;;2.40;1.30;;;;;;;;;;4983777;28;20450;-95
2021/01/09 01:39:43;;;;;;;3.63;1.57;;;;;;;;;;4966358;28;20462;-95
2021/01/09 01:42:09;;;;;;;5.30;1.60;;;;;;;;;;4986184;28;20519;-95
2021/01/09 01:44:35;;;;;;;2.17;1.40;;;;;;;;;;4980587;28;20492;-93
2021/01/09 01:47:02;;;;;;;1.93;1.50;;;;;;;;;;4982790;28;20460;-96
2021/01/09 01:49:34;;;;;;;2.77;1.53;;;;;;;;;;4979221;28;20492;-95
2021/01/09 01:52:00;;;;;;;2.67;1.40;;;;;;;;;;4983572;28;20461;-91
2021/01/09 01:54:26;;;;;;;3.22;1.65;;;;;;;;;;4981513;28;21213;-95
2021/01/09 01:56:52;;;;;;;6.23;1.60;;;;;;;;;;4980478;28;20204;-91
2021/01/09 01:59:18;;;;;;;3.05;1.65;;;;;;;;;;4984903;28;20480;-94
2021/01/09 02:01:47;;;;;;;4.40;1.70;;;;;;;;;;4984167;28;20206;-93
2021/01/09 02:04:14;;;;;;;2.27;1.60;;;;;;;;;;4986698;28;20497;-93
2021/01/09 02:06:40;;;;;;;3.03;1.63;;;;;;;;;;4983525;28;20550;-94
2021/01/09 02:09:08;;;;;;;1.70;1.40;;;;;;;;;;4983424;28;20726;-95
2021/01/09 02:11:37;;;;;;;3.77;1.40;;;;;;;;;;4983499;28;20225;-94
2021/01/09 02:14:03;;;;;;;2.97;1.23;;;;;;;;;;4985956;28;20441;-95
2021/01/09 02:16:30;;;;;;;4.57;1.60;;;;;;;;;;5015908;28;20239;-96
2021/01/09 02:18:56;;;;;;;4.27;1.67;;;;;;;;;;5002332;28;20213;-93
2021/01/09 02:21:28;;;;;;;2.53;1.30;;;;;;;;;;5005011;28;20475;-93
2021/01/09 02:23:55;;;;;;;3.47;1.10;;;;;;;;;;5014465;28;20503;-93
2021/01/09 02:26:21;;;;;;;3.83;1.60;;;;;;;;;;5023254;28;20534;-94
2021/01/09 02:28:47;;;;;;;1.77;1.20;;;;;;;;;;5003356;28;20449;-91
2021/01/09 02:31:18;;;;;;;1.40;1.30;;;;;;;;;;5007626;28;20447;-96
2021/01/09 02:33:44;;;;;;;2.72;1.27;;;;;;;;;;5012010;28;20210;-94
2021/01/09 02:36:12;;;;;;;8.98;2.38;;;;;;;;;;5010421;28;20212;-96
2021/01/09 02:38:38;;;;;;;4.30;1.50;;;;;;;;;;5005317;28;20212;-94
2021/01/09 02:41:05;;;;;;;6.20;1.58;;;;;;;;;;5007619;28;20510;-94
2021/01/09 02:43:31;;;;;;;4.95;1.40;;;;;;;;;;5006317;28;20221;-94
2021/01/09 02:45:57;;;;;;;3.53;1.20;;;;;;;;;;5014709;28;20215;-93
2021/01/09 02:48:23;;;;;;;4.72;1.73;;;;;;;;;;5006088;28;20464;-94
2021/01/09 02:50:49;;;;;;;4.30;1.50;;;;;;;;;;5005112;28;20210;-93
2021/01/09 02:53:15;;;;;;;3.67;1.65;;;;;;;;;;5006558;28;20489;-93
2021/01/09 02:55:41;;;;;;;2.72;1.40;;;;;;;;;;5003469;28;20248;-92
2021/01/09 02:58:08;;;;;;;1.83;1.53;;;;;;;;;;5005591;28;20208;-92
2021/01/09 03:00:34;;;;;;;2.90;1.50;;;;;;;;;;5004304;28;20511;-92
2021/01/09 03:03:00;;;;;;;3.43;1.57;;;;;;;;;;5006699;28;20224;-95
2021/01/09 03:05:26;;;;;;;6.10;1.80;;;;;;;;;;5005313;28;20507;-94
2021/01/09 03:07:52;;;;;;;6.30;2.10;;;;;;;;;;5010493;28;20464;-95
2021/01/09 03:10:18;;;;;;;2.57;1.63;;;;;;;;;;5006714;28;20223;-91
2021/01/09 03:12:44;;;;;;;2.83;1.40;;;;;;;;;;5002855;28;20471;-94
2021/01/09 03:15:12;;;;;;;5.68;1.45;;;;;;;;;;5002008;28;20479;-94
2021/01/09 03:17:38;;;;;;;3.42;1.63;;;;;;;;;;4983039;28;20208;-94
2021/01/09 03:20:04;;;;;;;3.60;2.30;;;;;;;;;;5002665;28;20206;-95
2021/01/09 03:22:30;;;;;;;3.93;1.70;;;;;;;;;;5004859;28;20485;-95
2021/01/09 03:24:56;;;;;;;2.80;1.50;;;;;;;;;;4996261;28;20455;-93
2021/01/09 03:27:22;;;;;;;5.13;1.33;;;;;;;;;;4985070;28;20992;-93
2021/01/09 03:29:48;;;;;;;6.40;1.70;;;;;;;;;;4989196;28;20468;-92
2021/01/09 03:32:15;;;;;;;7.13;1.93;;;;;;;;;;5004935;28;20205;-94
2021/01/09 03:34:41;;;;;;;4.22;1.85;;;;;;;;;;4981531;28;20475;-94
2021/01/09 03:37:08;;;;;;;6.90;1.63;;;;;;;;;;4982960;28;20221;-94
2021/01/09 03:39:34;;;;;;;3.20;1.53;;;;;;;;;;4980848;28;20476;-95
2021/01/09 03:42:00;;;;;;;5.60;1.50;;;;;;;;;;4980414;28;21032;-93
2021/01/09 03:44:26;;;;;;;5.00;1.47;;;;;;;;;;4980861;28;20457;-94
2021/01/09 03:46:52;;;;;;;3.10;1.30;;;;;;;;;;4978796;28;20469;-92
2021/01/09 03:49:19;;;;;;;5.37;1.40;;;;;;;;;;4980537;28;20460;-92
2021/01/09 03:51:45;;;;;;;4.85;1.60;;;;;;;;;;4979237;28;20453;-94
2021/01/09 03:54:11;;;;;;;2.78;1.55;;;;;;;;;;4980924;28;20206;-93
2021/01/09 03:56:37;;;;;;;1.87;1.40;;;;;;;;;;4980252;28;20221;-93
2021/01/09 03:59:03;;;;;;;5.43;1.40;;;;;;;;;;4982934;28;20476;-93
2021/01/09 04:01:29;;;;;;;2.33;1.63;;;;;;;;;;4982012;28;21937;-93
2021/01/09 04:03:55;;;;;;;3.33;1.70;;;;;;;;;;4979234;28;20497;-94
2021/01/09 04:06:22;;;;;;;4.77;1.50;;;;;;;;;;4978751;28;20457;-93
2021/01/09 04:08:48;;;;;;;3.13;1.97;;;;;;;;;;4981597;28;20458;-93
2021/01/09 04:11:14;;;;;;;4.17;2.00;;;;;;;;;;4982993;28;20461;-93
2021/01/09 04:13:40;;;;;;;30.00;24.35;;;;;;;;;;4982804;28;20483;-94
2021/01/09 04:16:06;;;;;;;4.33;2.17;;;;;;;;;;4982743;28;20230;-94
2021/01/09 04:18:32;;;;;;;4.57;2.20;;;;;;;;;;4981779;28;20454;-93
2021/01/09 04:20:58;;;;;;;3.43;1.73;;;;;;;;;;4985460;28;20491;-94
2021/01/09 04:23:25;;;;;;;4.30;1.65;;;;;;;;;;4981966;28;20505;-93
2021/01/09 04:25:51;;;;;;;3.90;2.20;;;;;;;;;;4975956;28;20221;-93
2021/01/09 04:28:28;;;;;;;3.10;2.35;;;;;;;;;;4979626;28;20446;-96
2021/01/09 04:31:05;;;;;;;3.90;1.73;;;;;;;;;;4980569;28;20209;-96
2021/01/09 04:33:31;;;;;;;3.75;1.60;;;;;;;;;;4980984;28;20297;-96
2021/01/09 04:35:57;;;;;;;3.42;1.65;;;;;;;;;;4980458;28;20219;-96
2021/01/09 04:38:24;;;;;;;2.55;1.65;;;;;;;;;;4979763;28;20248;-95
2021/01/09 04:40:50;;;;;;;8.45;1.80;;;;;;;;;;4979422;28;20210;-94
2021/01/09 04:43:17;;;;;;;4.40;1.50;;;;;;;;;;4982696;28;20233;-94
2021/01/09 04:45:44;;;;;;;2.45;1.80;;;;;;;;;;4981913;28;20234;-94
2021/01/09 04:48:10;;;;;;;3.50;1.83;;;;;;;;;;4963936;29;20581;-94
2021/01/09 04:50:38;;;;;;;2.13;1.65;;;;;;;;;;4963609;29;20231;-94
2021/01/09 04:53:04;;;;;;;3.15;1.90;;;;;;;;;;4979652;28;20208;-94
2021/01/09 04:55:31;;;;;;;1.93;1.57;;;;;;;;;;4983440;28;20200;-92
2021/01/09 04:58:00;;;;;;;6.93;2.00;;;;;;;;;;4980272;28;20450;-93
2021/01/09 05:00:26;;;;;;;4.18;1.95;;;;;;;;;;4982442;28;20219;-94
2021/01/09 05:02:52;;;;;;;2.90;2.00;;;;;;;;;;4980636;28;20232;-94
2021/01/09 05:05:19;;;;;;;7.43;3.20;;;;;;;;;;4983479;28;20457;-95
2021/01/09 05:07:45;;;;;;;1.90;1.73;;;;;;;;;;4980400;28;20240;-93
2021/01/09 05:10:11;;;;;;;2.27;1.83;;;;;;;;;;4983440;28;20450;-93
2021/01/09 05:12:40;;;;;;;2.60;1.50;;;;;;;;;;4982780;28;20473;-93
2021/01/09 05:15:06;;;;;;;3.10;1.70;;;;;;;;;;4983462;28;20477;-92
2021/01/09 05:17:32;;;;;;;1.73;1.50;;;;;;;;;;5003668;28;20202;-94
2021/01/09 05:19:58;;;;;;;1.85;1.60;;;;;;;;;;4984436;28;20224;-93
2021/01/09 05:22:25;;;;;;;2.13;2.03;;;;;;;;;;4983718;28;20210;-93
2021/01/09 05:24:52;;;;;;;1.77;1.65;;;;;;;;;;4980727;28;20454;-93
2021/01/09 05:27:19;;;;;;;2.80;2.40;;;;;;;;;;4982874;28;20216;-92
2021/01/09 05:29:50;;;;;;;3.25;1.90;;;;;;;;;;4978840;28;20469;-92
2021/01/09 05:32:16;;;;;;;1.80;1.70;;;;;;;;;;4973282;28;20217;-93
2021/01/09 05:34:49;;;;;;;1.85;1.75;;;;;;;;;;4986993;28;20455;-93
2021/01/09 05:37:16;;;;;;;2.57;2.00;;;;;;;;;;4983647;28;20209;-91
2021/01/09 05:39:52;;;;;;;4.88;2.63;;;;;;;;;;4986158;28;20461;-92
2021/01/09 05:42:22;;;;;;;3.97;2.47;;;;;;;;;;4972092;28;20214;-91
2021/01/09 05:44:51;;;;;;;1.95;1.85;;;;;;;;;;4968443;28;20234;-92
2021/01/09 05:47:18;;;;;;;3.13;2.37;;;;;;;;;;4980771;28;20198;-91
2021/01/09 05:49:44;;;;;;;3.92;2.80;;;;;;;;;;4998888;28;20433;-92
2021/01/09 05:52:11;;;;;;;3.00;2.70;;;;;;;;;;4984087;28;20438;-93
2021/01/09 05:54:37;;;;;;;3.40;2.47;;;;;;;;;;4985369;28;20453;-93
2021/01/09 05:57:05;;;;;;;4.30;2.93;;;;;;;;;;4983364;28;20240;-92
2021/01/09 05:59:31;;;;;;;5.93;3.60;;;;;;;;;;4987449;28;20838;-92
2021/01/09 06:01:59;;;;;;;10.30;4.73;;;;;;;;;;4986153;28;20493;-92
2021/01/09 06:04:27;;;;;;;6.27;4.20;;;;;;;;;;4984519;28;20507;-92
2021/01/09 06:06:57;;;;;;;10.00;5.70;;;;;;;;;;4986686;28;20465;-94
2021/01/09 06:09:24;;;;;;;3.47;2.80;;;;;;;;;;4981960;28;20471;-92
2021/01/09 06:11:54;;;;;;;5.38;3.20;;;;;;;;;;4985837;28;20202;-92
2021/01/09 06:14:20;;;;;;;3.50;2.77;;;;;;;;;;4983904;28;20571;-93
2021/01/09 06:16:46;;;;;;;3.60;3.20;;;;;;;;;;5019849;28;20487;-92
2021/01/09 06:19:15;;;;;;;3.10;2.80;;;;;;;;;;5018474;28;20956;-92
2021/01/09 06:21:42;;;;;;;6.40;3.93;;;;;;;;;;5001443;28;20476;-92
2021/01/09 06:24:08;;;;;;;4.17;3.37;;;;;;;;;;5005314;28;20495;-92
2021/01/09 06:26:34;;;;;;;3.08;2.85;;;;;;;;;;5005585;28;20458;-92
2021/01/09 06:29:01;;;;;;;3.20;2.83;;;;;;;;;;5006406;28;20212;-93
2021/01/09 06:31:28;;;;;;;4.35;3.05;;;;;;;;;;5002274;28;20478;-93
2021/01/09 06:33:55;;;;;;;3.28;3.00;;;;;;;;;;5006500;28;20216;-93
2021/01/09 06:36:22;;;;;;;2.55;2.35;;;;;;;;;;5007073;28;20229;-94
2021/01/09 06:38:49;;;;;;;3.60;3.30;;;;;;;;;;5005693;28;20208;-93
2021/01/09 06:41:16;;;;;;;4.00;2.60;;;;;;;;;;5001822;28;20491;-92
2021/01/09 06:43:45;;;;;;;3.00;2.80;;;;;;;;;;5005795;28;20519;-93
2021/01/09 06:46:13;;;;;;;2.67;2.47;;;;;;;;;;5005065;28;20947;-92
2021/01/09 06:48:44;;;;;;;6.88;5.13;;;;;;;;;;5005379;28;20209;-93
2021/01/09 06:51:29;;;;;;;4.30;3.90;;;;;;;;;;5004823;28;20229;-93
2021/01/09 06:54:09;;;;;;;13.05;9.07;;;;;;;;;;5020146;28;20208;-94
2021/01/09 06:56:36;;;;;;;5.30;4.10;;;;;;;;;;5024116;28;20207;-93
2021/01/09 06:59:02;;;;;;;7.07;4.13;;;;;;;;;;5016127;28;20475;-93
2021/01/09 07:01:35;;;;;;;5.47;3.90;;;;;;;;;;5005274;28;20770;-92
2021/01/09 07:04:02;;;;;;;3.40;3.10;;;;;;;;;;4985951;28;20496;-95
2021/01/09 07:06:46;;;;;;;3.70;2.70;;;;;;;;;;5005752;28;20502;-95
2021/01/09 07:09:12;;;;;;;3.03;2.83;;;;;;;;;;5001865;28;20669;-93
2021/01/09 07:11:42;;;;;;;3.00;2.67;;;;;;;;;;5002314;28;20302;-96
2021/01/09 07:14:13;;;;;;;3.88;2.97;;;;;;;;;;5004121;28;20466;-95
2021/01/09 07:16:40;;;;;;;6.50;3.30;;;;;;;;;;4987338;28;20710;-95
2021/01/09 07:19:06;;;;;;;3.72;3.08;;;;;;;;;;4991555;28;20492;-94
2021/01/09 07:21:36;;;;;;;3.90;3.10;;;;;;;;;;5001297;28;20594;-95
2021/01/09 07:24:05;;;;;;;4.20;3.33;;;;;;;;;;5001417;28;20506;-94
2021/01/09 07:26:31;;;;;;;4.15;2.83;;;;;;;;;;4997411;28;20215;-93
2021/01/09 07:29:02;;;;;;;3.37;3.17;;;;;;;;;;5003493;28;20210;-94
2021/01/09 07:31:28;;;;;;;4.25;3.58;;;;;;;;;;5000068;28;20452;-93
2021/01/09 07:33:56;;;;;;;6.50;3.92;;;;;;;;;;5004766;28;20208;-93
2021/01/09 07:36:25;;;;;;;4.15;3.85;;;;;;;;;;5000963;28;20219;-92
2021/01/09 07:38:58;;;;;;;6.35;4.82;;;;;;;;;;5004035;28;20277;-93
2021/01/09 07:41:32;;;;;;;6.22;3.78;;;;;;;;;;5003113;28;20212;-93
2021/01/09 07:44:11;;;;;;;2.50;2.30;;;;;;;;;;5004361;28;20268;-96
2021/01/09 07:46:37;;;;;;;4.50;3.75;;;;;;;;;;5004488;28;21022;-93
2021/01/09 07:49:04;;;;;;;6.47;3.60;;;;;;;;;;5003121;28;20931;-92
2021/01/09 07:51:49;;;;;;;3.80;3.30;;;;;;;;;;5003814;28;20204;-94
2021/01/09 07:54:28;;;;;;;3.03;2.70;;;;;;;;;;5004606;28;20453;-94
2021/01/09 07:56:54;;;;;;;3.15;2.85;;;;;;;;;;5006045;28;20209;-96
2021/01/09 07:59:21;;;;;;;4.03;3.53;;;;;;;;;;4985879;28;20208;-93
2021/01/09 08:01:54;;;;;;;4.53;3.10;;;;;;;;;;5016038;28;20231;-95
2021/01/09 08:04:20;;;;;;;3.38;2.70;;;;;;;;;;5006701;28;20252;-93
2021/01/09 08:06:46;;;;;;;3.80;2.95;;;;;;;;;;5003652;28;20201;-94
2021/01/09 08:09:12;;;;;;;3.92;2.85;;;;;;;;;;5000609;28;20216;-94
2021/01/09 08:11:41;;;;;;;7.38;3.20;;;;;;;;;;5003901;28;20210;-93
2021/01/09 08:14:08;;;;;;;3.75;2.90;;;;;;;;;;5005121;28;20224;-94
2021/01/09 08:16:35;;;;;;;5.93;2.83;;;;;;;;;;5017696;28;20255;-96
2021/01/09 08:19:23;;;;;;;4.13;3.60;;;;;;;;;;5003317;28;20462;-92
2021/01/09 08:21:52;;;;;;;5.50;3.50;;;;;;;;;;5002482;28;20472;-95
2021/01/09 08:24:22;;;;;;;3.70;3.10;;;;;;;;;;5008773;28;20495;-96
2021/01/09 08:26:51;;;;;;;4.60;3.67;;;;;;;;;;5014605;28;20206;-93
2021/01/09 08:29:17;;;;;;;4.63;3.08;;;;;;;;;;5004758;28;20201;-93
2021/01/09 08:31:44;;;;;;;4.90;3.30;;;;;;;;;;5006122;28;20223;-94
2021/01/09 08:34:10;;;;;;;6.73;3.37;;;;;;;;;;5021550;28;20525;-93
2021/01/09 08:36:37;;;;;;;7.10;4.20;;;;;;;;;;5016392;28;20452;-96
2021/01/09 08:39:06;;;;;;;7.60;4.60;;;;;;;;;;5004318;28;20512;-93
2021/01/09 08:41:35;;;;;;;2.60;2.40;;;;;;;;;;5005973;28;20453;-94
2021/01/09 08:44:05;;;;;;;3.70;3.13;;;;;;;;;;5020151;28;21038;-93
2021/01/09 08:46:31;;;;;;;7.17;4.73;;;;;;;;;;5015145;28;21169;-96
2021/01/09 08:48:58;;;;;;;4.23;3.57;;;;;;;;;;5003809;28;20456;-95
2021/01/09 08:51:25;;;;;;;8.87;5.50;;;;;;;;;;5002718;28;20461;-95
2021/01/09 08:53:53;;;;;;;3.27;2.70;;;;;;;;;;5004044;28;20456;-96
2021/01/09 08:56:20;;;;;;;4.90;3.80;;;;;;;;;;5006061;28;20553;-94
2021/01/09 08:58:47;;;;;;;7.20;3.00;;;;;;;;;;5004987;28;20452;-94
2021/01/09 09:01:14;;;;;;;3.13;2.67;;;;;;;;;;5023684;28;20459;-96
2021/01/09 09:03:42;;;;;;;2.80;2.60;;;;;;;;;;5025649;28;20475;-94
2021/01/09 09:06:10;;;;;;;3.33;2.87;;;;;;;;;;5011719;28;20477;-94
2021/01/09 09:08:36;;;;;;;2.97;2.60;;;;;;;;;;5001071;28;20472;-95
2021/01/09 09:11:02;;;;;;;2.83;2.63;;;;;;;;;;5005069;28;20491;-93
2021/01/09 09:13:28;;;;;;;3.13;2.73;;;;;;;;;;5002510;28;20460;-94
2021/01/09 09:15:54;;;;;;;4.72;3.38;;;;;;;;;;4990460;28;21139;-95
2021/01/09 09:18:22;;;;;;;3.20;2.93;;;;;;;;;;4985690;28;20205;-96
2021/01/09 09:20:50;;;;;;;3.78;3.25;;;;;;;;;;4981745;28;20464;-96
2021/01/09 09:23:24;;;;;;;5.10;3.30;;;;;;;;;;4985361;28;20241;-96
2021/01/09 09:26:03;;;;;;;3.47;3.13;;;;;;;;;;4979475;28;20479;-95
2021/01/09 09:28:32;;;;;;;5.27;3.70;;;;;;;;;;4975532;28;20518;-96
2021/01/09 09:30:58;;;;;;;3.57;2.47;;;;;;;;;;4945832;28;20537;-96
2021/01/09 09:33:25;;;;;;;3.13;2.87;;;;;;;;;;5001726;28;20444;-96
2021/01/09 09:35:51;;;;;;;3.07;2.77;;;;;;;;;;4991162;28;20484;-94
2021/01/09 09:38:27;;;;;;;7.30;3.80;;;;;;;;;;4984105;28;21275;-95
2021/01/09 09:41:03;;;;;;;6.00;3.90;;;;;;;;;;4987108;28;20458;-94
2021/01/09 09:43:29;;;;;;;9.67;6.50;;;;;;;;;;4983453;28;20243;-94
2021/01/09 09:45:56;;;;;;;5.57;2.90;;;;;;;;;;4982762;28;20473;-95
2021/01/09 09:48:35;;;;;;;5.95;4.40;;;;;;;;;;4978655;28;20457;-95
2021/01/09 09:51:13;;;;;;;3.90;3.30;;;;;;;;;;4997982;28;20275;-95
2021/01/09 09:53:51;;;;;;;6.03;3.43;;;;;;;;;;5002263;28;20455;-96
2021/01/09 09:56:17;;;;;;;4.23;3.20;;;;;;;;;;4986204;28;20509;-96
2021/01/09 09:58:44;;;;;;;4.97;3.40;;;;;;;;;;4985466;28;20862;-96
2021/01/09 10:01:16;;;;;;;3.83;3.20;;;;;;;;;;4986810;28;20543;-94
2021/01/09 10:03:49;;;;;;;3.90;3.40;;;;;;;;;;4983397;28;20481;-95
2021/01/09 10:06:17;;;;;;;6.93;4.10;;;;;;;;;;4995498;28;20456;-95
2021/01/09 10:08:44;;;;;;;4.90;4.10;;;;;;;;;;5002155;28;20456;-96
2021/01/09 10:11:10;;;;;;;7.20;3.17;;;;;;;;;;4995424;28;20722;-96
2021/01/09 10:13:36;;;;;;;8.40;4.47;;;;;;;;;;4997292;28;20465;-93
2021/01/09 10:16:03;;;;;;;4.93;4.07;;;;;;;;;;4988839;28;20491;-95
2021/01/09 10:18:30;;;;;;;4.37;3.50;;;;;;;;;;4982172;28;20854;-96
2021/01/09 10:20:56;;;;;;;6.23;4.63;;;;;;;;;;5001912;28;20468;-96
2021/01/09 10:23:22;;;;;;;7.13;3.77;;;;;;;;;;4997909;28;20494;-96
2021/01/09 10:25:50;;;;;;;7.43;4.27;;;;;;;;;;5001763;28;20450;-96
2021/01/09 10:28:20;;;;;;;4.37;3.97;;;;;;;;;;4997136;28;20467;-96
2021/01/09 10:30:47;;;;;;;4.87;3.77;;;;;;;;;;5003920;28;20494;-94
2021/01/09 10:33:13;;;;;;;9.30;4.83;;;;;;;;;;4999776;28;20490;-96
2021/01/09 10:35:39;;;;;;;5.07;3.57;;;;;;;;;;5001813;28;20474;-96
2021/01/09 10:38:05;;;;;;;6.60;4.53;;;;;;;;;;5000369;28;20477;-93
2021/01/09 10:40:31;;;;;;;6.63;4.00;;;;;;;;;;5003307;28;20448;-93
2021/01/09 10:42:58;;;;;;;10.23;4.73;;;;;;;;;;5005452;28;20460;-95
2021/01/09 10:45:25;;;;;;;6.63;3.40;;;;;;;;;;5006133;28;20459;-96
2021/01/09 10:47:51;;;;;;;6.00;4.10;;;;;;;;;;5005804;28;21219;-93
2021/01/09 10:50:17;;;;;;;8.17;5.50;;;;;;;;;;5000772;28;20460;-93
2021/01/09 10:52:43;;;;;;;5.50;4.30;;;;;;;;;;5004451;28;20457;-96
2021/01/09 10:55:10;;;;;;;5.70;4.63;;;;;;;;;;5000826;28;20452;-92
2021/01/09 10:57:36;;;;;;;4.90;3.70;;;;;;;;;;5003123;28;20457;-94
2021/01/09 11:00:04;;;;;;;5.70;4.47;;;;;;;;;;5012442;28;20451;-95
2021/01/09 11:02:30;;;;;;;6.23;4.00;;;;;;;;;;5008072;28;20457;-93
2021/01/09 11:04:56;;;;;;;6.47;4.97;;;;;;;;;;5005878;28;20504;-96
2021/01/09 11:07:22;;;;;;;7.10;4.00;;;;;;;;;;5001094;28;20464;-95
2021/01/09 11:09:48;;;;;;;8.30;4.70;;;;;;;;;;5003021;28;20456;-92
2021/01/09 11:12:14;;;;;;;6.67;5.60;;;;;;;;;;4999665;28;20483;-93
2021/01/09 11:14:40;;;;;;;7.27;5.33;;;;;;;;;;5003609;28;20460;-92
2021/01/09 11:17:07;;;;;;;6.43;5.77;;;;;;;;;;4995153;28;20489;-94
2021/01/09 11:19:33;;;;;;;6.90;5.90;;;;;;;;;;4983952;28;20468;-93
2021/01/09 11:22:02;;;;;;;7.20;5.60;;;;;;;;;;4980306;28;20467;-93
2021/01/09 11:24:37;;;;;;;12.97;7.60;;;;;;;;;;4981587;28;20500;-95
2021/01/09 11:27:04;;;;;;;7.03;5.60;;;;;;;;;;4986380;28;20454;-95
2021/01/09 11:29:30;;;;;;;7.80;6.20;;;;;;;;;;4985520;28;20458;-93
2021/01/09 11:31:57;;;;;;;6.40;5.27;;;;;;;;;;4983817;28;20462;-93
2021/01/09 11:34:24;;;;;;;10.53;7.20;;;;;;;;;;4981860;28;20473;-95
2021/01/09 11:36:50;;;;;;;7.93;6.20;;;;;;;;;;4984183;28;20446;-96
2021/01/09 11:39:16;;;;;;;7.70;6.60;;;;;;;;;;4981448;28;20449;-95
2021/01/09 11:41:42;;;;;;;8.40;5.73;;;;;;;;;;4981111;28;20536;-94
2021/01/09 11:44:08;;;;;;;7.13;6.07;;;;;;;;;;4982295;28;20555;-94
2021/01/09 11:46:34;;;;;;;5.90;5.30;;;;;;;;;;4981405;28;20461;-96
2021/01/09 11:49:13;;;;;;;6.00;5.40;;;;;;;;;;4983977;28;20445;-94
2021/01/09 11:51:44;;;;;;;7.00;5.17;;;;;;;;;;4981672;28;20540;-93
2021/01/09 11:54:10;;;;;;;6.87;5.37;;;;;;;;;;4983108;28;20451;-94
2021/01/09 11:56:37;;;;;;;6.90;5.23;;;;;;;;;;4980448;28;20466;-96
2021/01/09 11:59:05;;;;;;;7.50;4.80;;;;;;;;;;4986259;28;20450;-96
2021/01/09 12:01:35;;;;;;;11.87;7.47;;;;;;;;;;4987604;28;20469;-93
2021/01/09 12:04:01;;;;;;;6.23;5.63;;;;;;;;;;4983944;28;20485;-94
2021/01/09 12:06:28;;;;;;;9.50;6.60;;;;;;;;;;4980577;28;20477;-93
2021/01/09 12:08:55;;;;;;;6.17;5.57;;;;;;;;;;4967373;28;20445;-96
2021/01/09 12:11:21;;;;;;;6.20;5.40;;;;;;;;;;4983654;28;20480;-94
2021/01/09 12:13:47;;;;;;;9.50;7.07;;;;;;;;;;4999466;28;20496;-93
2021/01/09 12:16:13;;;;;;;8.90;6.43;;;;;;;;;;5004010;28;20481;-95
2021/01/09 12:18:39;;;;;;;8.87;7.10;;;;;;;;;;4987443;28;20477;-92
2021/01/09 12:21:05;;;;;;;6.50;5.57;;;;;;;;;;4981972;28;20469;-95
2021/01/09 12:23:31;;;;;;;8.37;6.20;;;;;;;;;;4978738;28;20492;-96
2021/01/09 12:25:58;;;;;;;11.50;8.73;;;;;;;;;;4980785;28;20450;-94
2021/01/09 12:28:24;;;;;;;12.87;10.40;;;;;;;;;;4972475;28;20446;-93
2021/01/09 12:30:50;;;;;;;10.13;7.90;;;;;;;;;;4981891;28;20806;-95
2021/01/09 12:33:17;;;;;;;13.37;9.73;;;;;;;;;;4983635;28;20461;-92
2021/01/09 12:35:43;;;;;;;11.13;9.00;;;;;;;;;;4980920;28;20517;-94
2021/01/09 12:38:09;;;;;;;13.80;10.10;;;;;;;;;;4981571;28;20469;-92
2021/01/09 12:40:35;;;;;;;14.60;11.43;;;;;;;;;;4987765;28;20469;-92
2021/01/09 12:43:02;;;;;;;14.40;11.87;;;;;;;;;;5001727;28;20480;-96
2021/01/09 12:45:28;;;;;;;13.17;10.73;;;;;;;;;;4992141;28;20460;-94
2021/01/09 12:47:54;;;;;;;12.30;9.50;;;;;;;;;;4981897;28;20453;-93
2021/01/09 12:50:20;;;;;;;13.30;10.17;;;;;;;;;;4973916;28;20500;-95
2021/01/09 12:52:46;;;;;;;15.90;11.73;;;;;;;;;;4994073;28;20449;-91
2021/01/09 12:55:12;;;;;;;13.63;10.50;;;;;;;;;;4994037;28;20466;-94
2021/01/09 12:57:38;;;;;;;12.97;9.80;;;;;;;;;;4972903;28;20508;-92
2021/01/09 13:00:06;;;;;;;16.83;12.63;;;;;;;;;;4973510;28;20501;-93
2021/01/09 13:02:32;;;;;;;17.43;12.50;;;;;;;;;;4972178;28;20449;-92
2021/01/09 13:04:58;;;;;;;17.40;12.77;;;;;;;;;;4979286;28;20501;-92
2021/01/09 13:07:24;;;;;;;14.83;10.87;;;;;;;;;;4979574;28;21185;-91
2021/01/09 13:09:50;;;;;;;15.47;12.30;;;;;;;;;;4979622;28;20517;-92
2021/01/09 13:12:16;;;;;;;18.30;13.43;;;;;;;;;;4980978;28;20456;-91
2021/01/09 13:14:42;;;;;;;21.00;15.90;;;;;;;;;;4980569;28;20445;-93
2021/01/09 13:17:12;;;;;;;26.93;17.90;;;;;;;;;;4983198;28;20446;-92
2021/01/09 13:19:38;;;;;;;25.00;16.50;;;;;;;;;;4979529;28;20479;-91
2021/01/09 13:22:04;;;;;;;26.83;18.30;;;;;;;;;;4982008;28;20481;-91
2021/01/09 13:24:30;;;;;;;24.13;19.00;;;;;;;;;;4978641;28;20497;-90
2021/01/09 13:26:58;;;;;;;27.33;18.73;;;;;;;;;;4980126;28;20450;-93
2021/01/09 13:29:24;;;;;;;21.00;14.73;;;;;;;;;;4979609;28;20892;-90
2021/01/09 13:31:50;;;;;;;21.07;15.67;;;;;;;;;;4982756;28;20476;-91
2021/01/09 13:34:17;;;;;;;18.60;14.00;;;;;;;;;;4990508;28;20506;-90
2021/01/09 13:36:44;;;;;;;16.60;11.17;;;;;;;;;;4983505;28;20465;-90
2021/01/09 13:39:11;;;;;;;11.30;9.40;;;;;;;;;;4981548;28;20469;-92
2021/01/09 13:41:37;;;;;;;18.10;12.40;;;;;;;;;;4979510;28;20449;-91
2021/01/09 13:44:04;;;;;;;16.27;12.93;;;;;;;;;;4982304;28;20489;-91
2021/01/09 13:46:30;;;;;;;18.33;13.50;;;;;;;;;;4979318;28;20454;-91
2021/01/09 13:48:56;;;;;;;19.10;13.30;;;;;;;;;;4981693;28;20496;-91
2021/01/09 13:51:23;;;;;;;21.80;16.37;;;;;;;;;;4980238;28;20446;-91
2021/01/09 13:53:49;;;;;;;20.40;15.90;;;;;;;;;;4981358;28;20562;-91
2021/01/09 13:56:15;;;;;;;24.77;17.60;;;;;;;;;;4984860;28;21250;-91
2021/01/09 13:58:59;;;;;;;25.27;18.73;;;;;;;;;;4989956;28;20476;-96
2021/01/09 14:01:29;;;;;;;23.80;17.47;;;;;;;;;;4965687;28;20458;-95
2021/01/09 14:07:32;;;;;;;22.10;17.47;;;;;;;;;;4898846;29;20561;-95
2021/01/09 14:10:00;;;;;;;20.60;16.13;;;;;;;;;;4870495;29;20472;-92
2021/01/09 14:18:40;;;;;;;;;;;;;;;;;;;;;
2021/01/09 14:21:09;;;;;;;19.17;14.50;;;;;;;;;;4909526;29;20450;-93
2021/01/09 14:23:35;;;;;;;18.43;14.60;;;;;;;;;;4980038;28;20477;-93
2021/01/09 14:26:04;;;;;;;19.10;13.73;;;;;;;;;;4983495;28;20473;-94
2021/01/09 14:32:13;;;;;;;17.13;13.67;;;;;;;;;;4920750;29;20519;-94
2021/01/09 14:37:23;;;;;;;16.27;13.10;;;;;;;;;;4898933;29;20503;-93
2021/01/09 14:39:49;;;;;;;18.40;14.53;;;;;;;;;;4905798;29;20992;-93
2021/01/09 14:42:17;;;;;;;19.90;16.33;;;;;;;;;;4941049;28;20462;-92
2021/01/09 14:44:43;;;;;;;24.00;17.83;;;;;;;;;;5002813;28;20510;-93
2021/01/09 14:47:09;;;;;;;26.57;19.57;;;;;;;;;;4984960;28;20483;-93
2021/01/09 14:49:35;;;;;;;29.40;22.13;;;;;;;;;;4981395;28;20448;-92
2021/01/09 14:52:02;;;;;;;17.93;14.57;;;;;;;;;;4981184;28;20458;-93
2021/01/09 14:54:32;;;;;;;16.30;13.03;;;;;;;;;;4984018;28;20551;-93
2021/01/09 14:56:58;;;;;;;16.07;13.67;;;;;;;;;;4979948;28;20480;-93
2021/01/09 14:59:37;;;;;;;16.60;14.17;;;;;;;;;;4984358;28;20462;-93